createdAt,value
2022-12-23T00:00:27.567Z,8.40
2022-12-23T00:02:54.434Z,8.40
2022-12-23T00:05:21.276Z,8.40
2022-12-23T00:07:48.096Z,8.40
2022-12-23T00:10:15.978Z,8.40
2022-12-23T00:13:01.143Z,8.40
2022-12-23T00:15:27.884Z,8.40
2022-12-23T00:17:54.716Z,8.50
2022-12-23T00:20:22.606Z,8.50
2022-12-23T00:23:07.577Z,8.40
2022-12-23T00:25:44.464Z,8.40
2022-12-23T00:28:17.354Z,8.50
2022-12-23T00:30:52.748Z,8.50
2022-12-23T00:33:25.623Z,8.40
2022-12-23T00:35:52.899Z,8.50
2022-12-23T00:38:38.999Z,8.50
2022-12-23T00:41:28.418Z,8.50
2022-12-23T00:44:01.369Z,8.50
2022-12-23T00:46:28.602Z,8.50
2022-12-23T00:49:16.781Z,8.50
2022-12-23T00:51:43.475Z,8.50
2022-12-23T00:54:10.244Z,8.60
2022-12-23T00:56:36.922Z,8.50
2022-12-23T00:59:04.264Z,8.50
2022-12-23T01:01:49.619Z,8.50
2022-12-23T01:04:36.460Z,8.50
2022-12-23T01:07:04.023Z,8.50
2022-12-23T01:09:34.285Z,8.50
2022-12-23T01:12:01.472Z,8.50
2022-12-23T01:14:31.120Z,8.50
2022-12-23T01:16:57.813Z,8.50
2022-12-23T01:19:27.315Z,8.50
2022-12-23T01:21:54.067Z,8.50
2022-12-23T01:24:20.741Z,8.50
2022-12-23T01:26:47.462Z,8.50
2022-12-23T01:29:14.319Z,8.50
2022-12-23T01:31:41.095Z,8.50
2022-12-23T01:34:10.800Z,8.50
2022-12-23T01:36:39.941Z,8.50
2022-12-23T01:39:06.604Z,8.50
2022-12-23T01:41:52.880Z,8.40
2022-12-23T01:44:47.476Z,8.40
2022-12-23T01:47:20.631Z,8.40
2022-12-23T01:49:48.583Z,8.40
2022-12-23T01:52:15.460Z,8.40
2022-12-23T01:54:43.624Z,8.40
2022-12-23T01:57:10.863Z,8.40
2022-12-23T02:00:00.017Z,8.40
2022-12-23T02:02:47.325Z,8.40
2022-12-23T02:05:14.309Z,8.40
2022-12-23T02:08:02.687Z,8.40
2022-12-23T02:10:39.200Z,8.40
2022-12-23T02:13:22.082Z,8.50
2022-12-23T02:16:12.177Z,8.60
2022-12-23T02:18:41.838Z,8.50
2022-12-23T02:21:27.033Z,8.60
2022-12-23T02:24:25.006Z,8.60
2022-12-23T02:27:13.618Z,8.60
2022-12-23T02:29:52.428Z,8.60
2022-12-23T02:32:41.499Z,8.50
2022-12-23T02:35:27.295Z,8.50
2022-12-23T02:38:24.619Z,8.40
2022-12-23T02:41:32.800Z,8.50
2022-12-23T02:44:12.305Z,8.50
2022-12-23T02:47:05.600Z,8.50
2022-12-23T02:49:43.089Z,8.50
2022-12-23T02:52:14.359Z,8.40
2022-12-23T02:54:47.012Z,8.30
2022-12-23T02:57:16.768Z,8.30
2022-12-23T02:59:51.217Z,8.20
2022-12-23T03:02:18.757Z,8.10
2022-12-23T03:04:45.645Z,8.00
2022-12-23T03:07:31.177Z,7.90
2022-12-23T03:10:18.896Z,7.90
2022-12-23T03:13:38.083Z,7.80
2022-12-23T03:16:20.121Z,7.80
2022-12-23T03:19:13.044Z,7.80
2022-12-23T03:21:53.498Z,7.80
2022-12-23T03:24:28.340Z,7.80
2022-12-23T03:27:18.123Z,7.80
2022-12-23T03:30:00.496Z,7.80
2022-12-23T03:32:32.197Z,7.70
2022-12-23T03:35:01.107Z,7.70
2022-12-23T03:37:32.848Z,7.60
2022-12-23T03:40:09.699Z,7.50
2022-12-23T03:42:40.863Z,7.50
2022-12-23T03:48:10.340Z,7.40
2022-12-23T03:50:39.854Z,7.10
2022-12-23T03:53:21.385Z,6.90
2022-12-23T03:55:57.215Z,6.90
2022-12-23T03:58:33.816Z,6.80
2022-12-23T04:01:25.256Z,6.60
2022-12-23T04:04:00.081Z,6.50
2022-12-23T04:06:32.584Z,6.50
2022-12-23T04:08:59.881Z,6.50
2022-12-23T04:11:26.564Z,6.40
2022-12-23T04:13:56.270Z,6.40
2022-12-23T04:16:23.417Z,6.40
2022-12-23T04:18:53.290Z,6.30
2022-12-23T04:21:22.747Z,6.20
2022-12-23T04:23:49.444Z,6.10
2022-12-23T04:26:16.172Z,6.10
2022-12-23T04:28:43.205Z,6.10
2022-12-23T04:31:09.956Z,6.00
2022-12-23T04:33:36.686Z,6.00
2022-12-23T04:36:03.511Z,5.90
2022-12-23T04:38:30.279Z,5.90
2022-12-23T04:40:56.924Z,5.80
2022-12-23T04:43:23.612Z,5.80
2022-12-23T04:45:53.341Z,5.80
2022-12-23T04:48:20.374Z,5.80
2022-12-23T04:50:47.099Z,5.70
2022-12-23T04:53:13.851Z,5.60
2022-12-23T04:55:45.321Z,5.60
2022-12-23T04:58:14.799Z,5.60
2022-12-23T05:00:41.476Z,5.50
2022-12-23T05:03:08.345Z,5.50
2022-12-23T05:05:35.212Z,5.40
2022-12-23T05:08:05.466Z,5.20
2022-12-23T05:10:32.443Z,5.00
2022-12-23T05:12:59.251Z,4.90
2022-12-23T05:15:25.985Z,4.90
2022-12-23T05:17:52.594Z,4.90
2022-12-23T05:20:19.306Z,4.90
2022-12-23T05:22:49.136Z,5.00
2022-12-23T05:25:18.878Z,5.00
2022-12-23T05:27:45.554Z,5.00
2022-12-23T05:30:14.975Z,5.10
2022-12-23T05:32:41.629Z,5.30
2022-12-23T05:35:08.715Z,5.40
2022-12-23T05:37:35.361Z,5.40
2022-12-23T05:40:02.344Z,5.30
2022-12-23T05:42:32.491Z,5.30
2022-12-23T05:44:59.201Z,5.30
2022-12-23T05:47:25.824Z,5.40
2022-12-23T05:49:55.069Z,5.40
2022-12-23T05:52:24.758Z,5.60
2022-12-23T05:54:54.471Z,5.60
2022-12-23T05:57:31.921Z,5.70
2022-12-23T05:59:58.981Z,5.80
2022-12-23T06:02:25.764Z,5.90
2022-12-23T06:04:54.800Z,5.90
2022-12-23T06:07:27.304Z,5.90
2022-12-23T06:09:53.999Z,6.00
2022-12-23T06:12:20.701Z,6.10
2022-12-23T06:14:47.357Z,6.20
2022-12-23T06:17:14.396Z,6.20
2022-12-23T06:19:41.050Z,6.30
2022-12-23T06:22:07.700Z,6.40
2022-12-23T06:24:34.458Z,6.40
2022-12-23T06:27:01.258Z,6.40
2022-12-23T06:29:27.935Z,6.30
2022-12-23T06:31:54.681Z,6.20
2022-12-23T06:34:21.406Z,6.00
2022-12-23T06:36:48.646Z,5.90
2022-12-23T06:39:15.756Z,5.70
2022-12-23T06:41:42.438Z,5.70
2022-12-23T06:44:10.145Z,5.80
2022-12-23T06:46:36.855Z,5.90
2022-12-23T06:49:07.648Z,5.90
2022-12-23T06:51:39.480Z,6.00
2022-12-23T06:54:06.164Z,6.00
2022-12-23T06:56:42.087Z,6.00
2022-12-23T06:59:08.996Z,6.00
2022-12-23T07:01:35.849Z,6.00
2022-12-23T07:04:03.083Z,6.00
2022-12-23T07:06:29.934Z,6.00
2022-12-23T07:08:56.725Z,6.00
2022-12-23T07:11:29.222Z,6.00
2022-12-23T07:14:00.482Z,6.10
2022-12-23T07:16:27.321Z,6.20
2022-12-23T07:18:54.072Z,6.30
2022-12-23T07:21:28.646Z,6.40
2022-12-23T07:23:57.567Z,6.50
2022-12-23T07:26:24.259Z,6.50
2022-12-23T07:28:50.917Z,6.60
2022-12-23T07:31:17.808Z,6.70
2022-12-23T07:33:44.640Z,6.70
2022-12-23T07:36:12.527Z,6.80
2022-12-23T07:38:45.209Z,6.80
2022-12-23T07:41:11.918Z,6.80
2022-12-23T07:44:04.666Z,6.90
2022-12-23T07:46:31.348Z,7.00
2022-12-23T07:48:58.211Z,7.00
2022-12-23T07:51:25.379Z,7.10
2022-12-23T07:53:52.083Z,7.10
2022-12-23T07:56:19.297Z,7.10
2022-12-23T07:58:50.145Z,7.10
2022-12-23T08:01:18.815Z,7.10
2022-12-23T08:03:45.925Z,7.10
2022-12-23T08:06:14.710Z,7.10
2022-12-23T08:08:43.621Z,7.00
2022-12-23T08:11:12.015Z,7.10
2022-12-23T08:13:41.664Z,7.10
2022-12-23T08:16:09.316Z,7.10
2022-12-23T08:18:39.305Z,7.20
2022-12-23T08:21:10.313Z,7.30
2022-12-23T08:23:37.007Z,7.30
2022-12-23T08:26:08.506Z,7.40
2022-12-23T08:28:36.143Z,7.40
2022-12-23T08:31:18.816Z,7.50
2022-12-23T08:33:48.095Z,7.60
2022-12-23T08:36:24.655Z,7.70
2022-12-23T08:38:56.914Z,7.70
2022-12-23T08:41:29.270Z,7.70
2022-12-23T08:43:57.944Z,7.80
2022-12-23T08:46:25.193Z,7.80
2022-12-23T08:48:52.916Z,7.90
2022-12-23T08:51:29.844Z,7.90
2022-12-23T08:54:00.839Z,7.90
2022-12-23T08:56:37.273Z,7.90
2022-12-23T08:59:04.443Z,7.90
2022-12-23T09:01:34.105Z,7.90
2022-12-23T09:04:05.694Z,7.90
2022-12-23T09:06:36.577Z,8.00
2022-12-23T09:09:04.426Z,8.00
2022-12-23T09:11:31.297Z,8.10
2022-12-23T09:14:00.363Z,8.20
2022-12-23T09:16:27.942Z,8.30
2022-12-23T09:18:56.182Z,8.20
2022-12-23T09:21:23.772Z,8.30
2022-12-23T09:23:53.110Z,8.20
2022-12-23T09:26:30.820Z,8.20
2022-12-23T09:28:57.771Z,8.30
2022-12-23T09:31:27.949Z,8.40
2022-12-23T09:33:59.156Z,8.50
2022-12-23T09:36:25.833Z,8.50
2022-12-23T09:38:57.358Z,8.60
2022-12-23T09:41:35.080Z,8.70
2022-12-23T09:44:41.620Z,8.90
2022-12-23T09:47:15.495Z,9.00
2022-12-23T09:49:49.813Z,9.20
2022-12-23T09:52:24.890Z,9.20
2022-12-23T09:54:54.737Z,9.30
2022-12-23T09:57:31.932Z,9.40
2022-12-23T10:00:08.209Z,9.50
2022-12-23T10:03:08.968Z,9.50
2022-12-23T10:05:57.598Z,9.40
2022-12-23T10:08:33.050Z,9.20
2022-12-23T10:11:01.859Z,9.10
2022-12-23T10:13:45.316Z,9.10
2022-12-23T10:16:25.480Z,9.00
2022-12-23T10:19:14.705Z,8.90
2022-12-23T10:21:50.223Z,8.90
2022-12-23T10:24:28.039Z,8.80
2022-12-23T10:27:20.666Z,8.90
2022-12-23T10:29:47.387Z,8.80
2022-12-23T10:32:44.232Z,8.80
2022-12-23T10:35:36.925Z,8.80
2022-12-23T10:38:31.354Z,8.80
2022-12-23T10:41:48.723Z,8.80
2022-12-23T10:44:43.578Z,8.80
2022-12-23T10:47:22.124Z,8.70
2022-12-23T10:50:03.884Z,8.80
2022-12-23T10:52:35.683Z,8.80
2022-12-23T10:55:04.757Z,8.80
2022-12-23T10:57:32.387Z,8.80
2022-12-23T10:59:59.072Z,8.80
2022-12-23T11:02:49.645Z,8.90
2022-12-23T11:05:27.822Z,8.90
2022-12-23T11:07:55.643Z,9.00
2022-12-23T11:10:28.411Z,9.00
2022-12-23T11:12:55.069Z,9.00
2022-12-23T11:15:39.910Z,9.10
2022-12-23T11:18:12.517Z,9.10
2022-12-23T11:20:41.996Z,9.10
2022-12-23T11:23:26.621Z,9.10
2022-12-23T11:26:01.561Z,9.10
2022-12-23T11:28:29.789Z,9.10
2022-12-23T11:31:05.639Z,9.10
2022-12-23T11:33:36.092Z,9.10
2022-12-23T11:36:17.414Z,9.10
2022-12-23T11:39:16.235Z,9.10
2022-12-23T11:41:47.609Z,9.10
2022-12-23T11:44:29.128Z,9.10
2022-12-23T11:47:23.263Z,9.10
2022-12-23T11:49:56.087Z,9.10
2022-12-23T11:52:29.231Z,9.10
2022-12-23T11:54:58.917Z,9.20
2022-12-23T11:57:59.329Z,9.30
2022-12-23T12:00:30.278Z,9.30
2022-12-23T12:03:03.053Z,9.30
2022-12-23T12:05:38.710Z,9.30
2022-12-23T12:08:20.220Z,9.30
2022-12-23T12:10:49.402Z,9.30
2022-12-23T12:13:25.981Z,9.40
2022-12-23T12:16:26.370Z,9.40
2022-12-23T12:18:56.083Z,9.40
2022-12-23T12:21:28.644Z,9.40
2022-12-23T12:24:18.206Z,9.30
2022-12-23T12:26:51.259Z,9.30
2022-12-23T12:29:39.251Z,9.30
2022-12-23T12:32:28.088Z,9.30
2022-12-23T12:35:05.873Z,9.30
2022-12-23T12:37:57.241Z,9.30
2022-12-23T12:40:49.660Z,9.30
2022-12-23T12:43:33.398Z,9.40
2022-12-23T12:46:18.192Z,9.50
2022-12-23T12:49:09.455Z,9.50
2022-12-23T12:51:48.237Z,9.50
2022-12-23T12:54:17.929Z,9.60
2022-12-23T12:57:06.550Z,9.50
2022-12-23T12:59:35.936Z,9.60
2022-12-23T13:02:11.842Z,9.60
2022-12-23T13:04:56.561Z,9.60
2022-12-23T13:07:57.077Z,9.60
2022-12-23T13:10:42.020Z,9.60
2022-12-23T13:13:56.078Z,9.60
2022-12-23T13:17:00.496Z,9.60
2022-12-23T13:19:48.798Z,9.50
2022-12-23T13:22:26.342Z,9.50
2022-12-23T13:25:17.383Z,9.60
2022-12-23T13:28:13.734Z,9.60
2022-12-23T13:30:50.423Z,9.60
2022-12-23T13:33:49.272Z,9.50
2022-12-23T13:36:36.822Z,9.60
2022-12-23T13:39:27.013Z,9.60
2022-12-23T13:42:05.168Z,9.60
2022-12-23T13:44:34.415Z,9.70
2022-12-23T13:47:07.338Z,9.60
2022-12-23T13:49:51.475Z,9.70
2022-12-23T13:52:34.119Z,9.70
2022-12-23T13:55:22.149Z,9.70
2022-12-23T13:58:12.772Z,9.80
2022-12-23T14:00:39.584Z,9.80
2022-12-23T14:03:15.179Z,9.80
2022-12-23T14:05:48.848Z,9.80
2022-12-23T14:08:18.502Z,9.90
2022-12-23T14:10:59.936Z,9.90
2022-12-23T14:13:30.332Z,9.90
2022-12-23T14:16:09.092Z,9.90
2022-12-23T14:19:04.016Z,9.90
2022-12-23T14:21:55.057Z,10.00
2022-12-23T14:24:27.612Z,10.00
2022-12-23T14:27:16.984Z,10.00
2022-12-23T14:30:07.195Z,10.00
2022-12-23T14:32:57.280Z,10.00
2022-12-23T14:35:42.216Z,10.10
2022-12-23T14:38:15.664Z,10.10
2022-12-23T14:40:43.485Z,10.20
2022-12-23T14:43:22.721Z,10.20
2022-12-23T14:46:11.018Z,10.30
2022-12-23T14:49:30.003Z,10.30
2022-12-23T14:51:52.260Z,10.30
2022-12-23T14:54:37.986Z,10.40
2022-12-23T14:57:13.747Z,10.40
2022-12-23T14:59:52.029Z,10.40
2022-12-23T15:02:35.694Z,10.40
2022-12-23T15:05:02.857Z,10.40
2022-12-23T15:07:43.937Z,10.40
2022-12-23T15:10:23.940Z,10.50
2022-12-23T15:12:55.869Z,10.50
2022-12-23T15:15:25.208Z,10.50
2022-12-23T15:18:21.654Z,10.50
2022-12-23T15:21:13.038Z,10.50
2022-12-23T15:23:49.583Z,10.50
2022-12-23T15:26:16.632Z,10.50
2022-12-23T15:28:45.685Z,10.50
2022-12-23T15:31:34.601Z,10.50
2022-12-23T15:34:13.255Z,10.50
2022-12-23T15:36:44.417Z,10.60
2022-12-23T15:39:19.499Z,10.50
2022-12-23T15:41:47.742Z,10.60
2022-12-23T15:44:22.269Z,10.60
2022-12-23T15:46:50.454Z,10.60
2022-12-23T15:49:19.574Z,10.60
2022-12-23T15:52:13.816Z,10.60
2022-12-23T15:54:52.967Z,10.60
2022-12-23T15:57:21.424Z,10.60
2022-12-23T15:59:49.622Z,10.60
2022-12-23T16:03:00.437Z,10.60
2022-12-23T16:05:35.947Z,10.60
2022-12-23T16:08:16.075Z,10.60
2022-12-23T16:10:55.211Z,10.60
2022-12-23T16:13:21.865Z,10.60
2022-12-23T16:15:48.739Z,10.60
2022-12-23T16:18:28.515Z,10.60
2022-12-23T16:21:06.319Z,10.60
2022-12-23T16:23:36.009Z,10.60
2022-12-23T16:26:04.123Z,10.60
2022-12-23T16:28:42.970Z,10.60
2022-12-23T16:31:11.407Z,10.70
2022-12-23T16:33:47.411Z,10.60
2022-12-23T16:36:50.787Z,10.60
2022-12-23T16:39:22.786Z,10.60
2022-12-23T16:41:50.412Z,10.60
2022-12-23T16:44:17.201Z,10.60
2022-12-23T16:46:47.125Z,10.70
2022-12-23T16:49:22.934Z,10.70
2022-12-23T16:51:53.538Z,10.60
2022-12-23T16:54:22.881Z,10.70
2022-12-23T16:56:52.625Z,10.70
2022-12-23T16:59:20.536Z,10.70
2022-12-23T17:01:49.047Z,10.80
2022-12-23T17:04:16.218Z,10.80
2022-12-23T17:06:43.177Z,10.80
2022-12-23T17:09:11.174Z,10.80
2022-12-23T17:11:39.434Z,10.90
2022-12-23T17:14:13.512Z,10.90
2022-12-23T17:16:42.330Z,10.90
2022-12-23T17:19:12.277Z,10.90
2022-12-23T17:21:40.450Z,10.80
2022-12-23T17:24:26.890Z,10.80
2022-12-23T17:26:55.150Z,10.70
2022-12-23T17:29:22.885Z,10.60
2022-12-23T17:31:50.803Z,10.70
2022-12-23T17:34:20.892Z,10.60
2022-12-23T17:36:50.284Z,10.60
2022-12-23T17:39:18.128Z,10.50
2022-12-23T17:41:44.945Z,10.50
2022-12-23T17:44:16.896Z,10.50
2022-12-23T17:46:44.839Z,10.50
2022-12-23T17:49:11.800Z,10.50
2022-12-23T17:51:40.179Z,10.40
2022-12-23T17:54:07.240Z,10.40
2022-12-23T17:56:36.233Z,10.40
2022-12-23T17:59:02.913Z,10.30
2022-12-23T18:01:34.367Z,10.20
2022-12-23T18:04:01.141Z,10.20
2022-12-23T18:06:29.223Z,10.10
2022-12-23T18:08:59.226Z,10.00
2022-12-23T18:11:44.781Z,10.00
2022-12-23T18:14:18.111Z,10.00
2022-12-23T18:16:44.879Z,10.00
2022-12-23T18:19:20.504Z,10.00
2022-12-23T18:21:47.609Z,10.00
2022-12-23T18:24:15.496Z,10.00
2022-12-23T18:26:42.203Z,10.00
2022-12-23T18:29:08.904Z,10.00
2022-12-23T18:31:36.234Z,9.90
2022-12-23T18:34:03.859Z,9.90
2022-12-23T18:36:33.715Z,10.00
2022-12-23T18:39:00.529Z,10.00
2022-12-23T18:41:27.461Z,10.00
2022-12-23T18:43:58.332Z,10.00
2022-12-23T18:46:25.044Z,10.00
2022-12-23T18:48:51.866Z,10.00
2022-12-23T18:51:21.329Z,10.10
2022-12-23T18:53:48.591Z,10.10
2022-12-23T18:56:20.935Z,10.10
2022-12-23T18:58:47.929Z,10.00
2022-12-23T19:01:18.891Z,10.00
2022-12-23T19:03:46.067Z,9.90
2022-12-23T19:06:15.505Z,9.90
2022-12-23T19:08:43.342Z,9.90
2022-12-23T19:11:11.459Z,9.90
2022-12-23T19:13:38.203Z,9.90
2022-12-23T19:16:05.165Z,9.90
2022-12-23T19:18:31.915Z,9.90
2022-12-23T19:21:03.043Z,9.80
2022-12-23T19:23:29.761Z,9.70
2022-12-23T19:25:56.578Z,9.70
2022-12-23T19:28:23.352Z,9.70
2022-12-23T19:30:50.518Z,9.70
2022-12-23T19:33:17.632Z,9.70
2022-12-23T19:35:47.337Z,9.80
2022-12-23T19:38:14.060Z,9.80
2022-12-23T19:40:40.785Z,9.90
2022-12-23T19:43:10.116Z,9.90
2022-12-23T19:45:36.829Z,9.90
2022-12-23T19:48:03.703Z,9.90
2022-12-23T19:50:33.166Z,9.90
2022-12-23T19:52:59.837Z,10.00
2022-12-23T19:55:26.490Z,10.00
2022-12-23T19:57:53.135Z,10.10
2022-12-23T20:00:19.835Z,10.20
2022-12-23T20:02:46.756Z,10.20
2022-12-23T20:05:15.570Z,10.20
2022-12-23T20:07:45.087Z,10.20
2022-12-23T20:10:11.791Z,10.20
2022-12-23T20:12:39.344Z,10.10
2022-12-23T20:15:06.622Z,10.10
2022-12-23T20:17:33.335Z,10.10
2022-12-23T20:19:59.989Z,10.10
2022-12-23T20:22:26.621Z,10.10
2022-12-23T20:24:53.248Z,10.10
2022-12-23T20:27:25.962Z,10.10
2022-12-23T20:30:00.298Z,10.00
2022-12-23T20:32:27.000Z,9.80
2022-12-23T20:34:56.041Z,9.70
2022-12-23T20:37:22.666Z,9.70
2022-12-23T20:39:49.372Z,9.70
2022-12-23T20:42:16.485Z,9.60
2022-12-23T20:44:43.185Z,9.60
2022-12-23T20:47:09.895Z,9.60
2022-12-23T20:49:36.612Z,9.60
2022-12-23T20:52:03.921Z,9.70
2022-12-23T20:54:33.561Z,9.80
2022-12-23T20:57:02.126Z,9.90
2022-12-23T20:59:29.259Z,10.00
2022-12-23T21:01:58.709Z,10.00
2022-12-23T21:04:27.759Z,10.10
2022-12-23T21:06:56.531Z,10.10
2022-12-23T21:09:29.111Z,10.10
2022-12-23T21:11:56.010Z,10.00
2022-12-23T21:14:22.786Z,10.00
2022-12-23T21:16:49.656Z,10.00
2022-12-23T21:19:22.063Z,10.00
2022-12-23T21:21:49.273Z,10.00
2022-12-23T21:24:17.165Z,10.00
2022-12-23T21:26:48.869Z,10.00
2022-12-23T21:29:19.594Z,10.00
2022-12-23T21:31:46.444Z,9.80
2022-12-23T21:34:14.449Z,9.70
2022-12-23T21:36:42.597Z,9.60
2022-12-23T21:39:13.430Z,9.60
2022-12-23T21:41:43.021Z,9.50
2022-12-23T21:44:13.729Z,9.50
2022-12-23T21:46:40.584Z,9.50
2022-12-23T21:49:13.325Z,9.40
2022-12-23T21:51:41.585Z,9.50
2022-12-23T21:54:10.084Z,9.50
2022-12-23T21:56:37.470Z,9.60
2022-12-23T21:59:07.996Z,9.60
2022-12-23T22:01:38.069Z,9.60
2022-12-23T22:04:05.067Z,9.60
2022-12-23T22:06:36.557Z,9.60
2022-12-23T22:09:07.730Z,9.50
2022-12-23T22:11:36.249Z,9.50
2022-12-23T22:14:04.972Z,9.50
2022-12-23T22:16:32.374Z,9.40
2022-12-23T22:19:00.883Z,9.40
2022-12-23T22:21:30.074Z,9.30
2022-12-23T22:23:57.773Z,9.30
2022-12-23T22:26:27.151Z,9.20
2022-12-23T22:28:59.462Z,9.30
2022-12-23T22:31:45.515Z,9.30
2022-12-23T22:34:20.366Z,9.30
2022-12-23T22:36:47.742Z,9.40
2022-12-23T22:39:20.535Z,9.40
2022-12-23T22:41:48.594Z,9.50
2022-12-23T22:44:16.256Z,9.50
2022-12-23T22:46:45.710Z,9.50
2022-12-23T22:49:14.386Z,9.50
2022-12-23T22:51:42.380Z,9.40
2022-12-23T22:54:09.399Z,9.30
2022-12-23T22:56:36.260Z,9.10
2022-12-23T22:59:08.672Z,9.10
2022-12-23T23:01:36.784Z,9.00
2022-12-23T23:04:04.566Z,9.00
2022-12-23T23:06:37.982Z,9.00
2022-12-23T23:09:11.484Z,9.00
2022-12-23T23:11:38.363Z,9.00
2022-12-23T23:14:05.496Z,9.00
2022-12-23T23:16:33.309Z,9.00
2022-12-23T23:19:02.976Z,8.90
2022-12-23T23:21:29.691Z,9.00
2022-12-23T23:23:58.696Z,9.00
2022-12-23T23:26:27.273Z,9.10
2022-12-23T23:28:55.774Z,9.20
2022-12-23T23:34:09.462Z,9.20
2022-12-23T23:36:36.363Z,9.30
2022-12-23T23:39:03.286Z,9.30
2022-12-23T23:41:29.931Z,9.30
2022-12-23T23:43:56.734Z,9.30
2022-12-23T23:46:23.432Z,9.30
2022-12-23T23:48:50.124Z,9.10
2022-12-23T23:51:17.053Z,9.00
2022-12-23T23:53:50.975Z,9.00
2022-12-23T23:56:23.732Z,8.90
2022-12-23T23:58:51.709Z,9.10
